sensor_id;sensor_type;location;lat;lon;timestamp;pressure;altitude;pressure_sealevel;temperature;humidity
20015;BME280;61787;42.022;23.078;2022-09-24T00:00:36;97220.59;;;8.50;72.19
20015;BME280;61787;42.022;23.078;2022-09-24T00:01:38;97225.31;;;8.53;71.96
20015;BME280;61787;42.022;23.078;2022-09-24T00:02:40;97228.47;;;8.55;71.65
20015;BME280;61787;42.022;23.078;2022-09-24T00:03:43;97232.25;;;8.54;71.74
20015;BME280;61787;42.022;23.078;2022-09-24T00:04:45;97229.25;;;8.55;71.53
20015;BME280;61787;42.022;23.078;2022-09-24T00:05:47;97222.50;;;8.58;70.97
20015;BME280;61787;42.022;23.078;2022-09-24T00:06:48;97226.88;;;8.54;71.18
20015;BME280;61787;42.022;23.078;2022-09-24T00:07:50;97225.31;;;8.53;70.52
20015;BME280;61787;42.022;23.078;2022-09-24T00:08:53;97222.19;;;8.51;70.63
20015;BME280;61787;42.022;23.078;2022-09-24T00:09:56;97222.50;;;8.58;70.96
20015;BME280;61787;42.022;23.078;2022-09-24T00:11:03;97224.72;;;8.56;70.45
20015;BME280;61787;42.022;23.078;2022-09-24T00:12:05;97221.97;;;8.47;71.15
20015;BME280;61787;42.022;23.078;2022-09-24T00:13:09;97230.75;;;8.39;71.62
20015;BME280;61787;42.022;23.078;2022-09-24T00:14:12;97223.69;;;8.35;71.71
20015;BME280;61787;42.022;23.078;2022-09-24T00:15:14;97225.41;;;8.31;71.99
20015;BME280;61787;42.022;23.078;2022-09-24T00:16:17;97225.66;;;8.29;72.13
20015;BME280;61787;42.022;23.078;2022-09-24T00:17:19;97225.06;;;8.32;72.38
20015;BME280;61787;42.022;23.078;2022-09-24T00:18:21;97234.69;;;8.42;72.27
20015;BME280;61787;42.022;23.078;2022-09-24T00:19:23;97225.63;;;8.51;72.38
20015;BME280;61787;42.022;23.078;2022-09-24T00:20:24;97222.84;;;8.65;71.94
20015;BME280;61787;42.022;23.078;2022-09-24T00:21:31;97218.81;;;8.85;71.95
20015;BME280;61787;42.022;23.078;2022-09-24T00:22:33;97224.34;;;8.97;71.82
20015;BME280;61787;42.022;23.078;2022-09-24T00:23:34;97220.75;;;9.02;71.39
20015;BME280;61787;42.022;23.078;2022-09-24T00:24:37;97216.03;;;9.07;70.43
20015;BME280;61787;42.022;23.078;2022-09-24T00:25:57;97224.84;;;9.08;70.53
20015;BME280;61787;42.022;23.078;2022-09-24T00:27:17;97220.44;;;9.12;70.67
20015;BME280;61787;42.022;23.078;2022-09-24T00:28:19;97218.22;;;9.14;70.67
20015;BME280;61787;42.022;23.078;2022-09-24T00:29:22;97225.63;;;9.17;71.21
20015;BME280;61787;42.022;23.078;2022-09-24T00:30:24;97222.97;;;9.25;71.29
20015;BME280;61787;42.022;23.078;2022-09-24T00:31:26;97225.78;;;9.29;70.93
20015;BME280;61787;42.022;23.078;2022-09-24T00:32:28;97225.63;;;9.34;70.74
20015;BME280;61787;42.022;23.078;2022-09-24T00:33:30;97222.34;;;9.37;70.92
20015;BME280;61787;42.022;23.078;2022-09-24T00:34:33;97225.47;;;9.39;69.84
20015;BME280;61787;42.022;23.078;2022-09-24T00:35:36;97218.88;;;9.28;69.79
20015;BME280;61787;42.022;23.078;2022-09-24T00:36:38;97225.47;;;9.22;69.83
20015;BME280;61787;42.022;23.078;2022-09-24T00:37:40;97222.97;;;9.17;69.33
20015;BME280;61787;42.022;23.078;2022-09-24T00:38:41;97217.44;;;9.13;69.47
20015;BME280;61787;42.022;23.078;2022-09-24T00:39:43;97227.97;;;9.10;69.55
20015;BME280;61787;42.022;23.078;2022-09-24T00:40:46;97223.25;;;9.07;69.71
20015;BME280;61787;42.022;23.078;2022-09-24T00:41:47;97220.88;;;9.05;69.59
20015;BME280;61787;42.022;23.078;2022-09-24T00:42:49;97232.53;;;8.92;69.95
20015;BME280;61787;42.022;23.078;2022-09-24T00:43:51;97229.50;;;8.76;70.04
20015;BME280;61787;42.022;23.078;2022-09-24T00:44:54;97228.78;;;8.62;70.30
20015;BME280;61787;42.022;23.078;2022-09-24T00:46:06;97231.28;;;8.50;70.51
20015;BME280;61787;42.022;23.078;2022-09-24T00:47:36;97233.81;;;8.55;70.57
20015;BME280;61787;42.022;23.078;2022-09-24T00:48:40;97237.94;;;8.61;71.43
20015;BME280;61787;42.022;23.078;2022-09-24T00:49:43;97241.41;;;8.62;70.46
20015;BME280;61787;42.022;23.078;2022-09-24T00:50:48;97237.59;;;8.63;70.89
20015;BME280;61787;42.022;23.078;2022-09-24T00:51:51;97231.97;;;8.64;70.27
20015;BME280;61787;42.022;23.078;2022-09-24T00:53:04;97233.03;;;8.63;70.70
20015;BME280;61787;42.022;23.078;2022-09-24T00:54:19;97232.88;;;8.51;71.32
20015;BME280;61787;42.022;23.078;2022-09-24T00:55:23;97232.38;;;8.49;71.25
20015;BME280;61787;42.022;23.078;2022-09-24T00:56:27;97233.47;;;8.48;71.57
20015;BME280;61787;42.022;23.078;2022-09-24T00:57:31;97227.97;;;8.53;71.20
20015;BME280;61787;42.022;23.078;2022-09-24T00:58:33;97229.13;;;8.61;71.31
20015;BME280;61787;42.022;23.078;2022-09-24T00:59:35;97226.78;;;8.68;70.59
20015;BME280;61787;42.022;23.078;2022-09-24T01:00:37;97224.59;;;8.78;70.22
20015;BME280;61787;42.022;23.078;2022-09-24T01:01:39;97226.19;;;8.88;70.00
20015;BME280;61787;42.022;23.078;2022-09-24T01:02:43;97219.00;;;8.97;69.01
20015;BME280;61787;42.022;23.078;2022-09-24T01:03:47;97223.56;;;9.14;68.08
20015;BME280;61787;42.022;23.078;2022-09-24T01:04:50;97222.81;;;9.22;67.89
20015;BME280;61787;42.022;23.078;2022-09-24T01:05:57;97218.88;;;9.28;68.32
20015;BME280;61787;42.022;23.078;2022-09-24T01:06:59;97223.09;;;9.29;68.21
20015;BME280;61787;42.022;23.078;2022-09-24T01:08:00;97225.34;;;9.27;68.05
20015;BME280;61787;42.022;23.078;2022-09-24T01:09:02;97223.91;;;9.21;68.66
20015;BME280;61787;42.022;23.078;2022-09-24T01:10:04;97229.91;;;9.18;67.95
20015;BME280;61787;42.022;23.078;2022-09-24T01:11:15;97227.97;;;9.18;68.37
20015;BME280;61787;42.022;23.078;2022-09-24T01:12:34;97225.78;;;9.12;68.39
20015;BME280;61787;42.022;23.078;2022-09-24T01:17:57;97227.97;;;9.01;68.65
20015;BME280;61787;42.022;23.078;2022-09-24T01:21:42;97229.56;;;9.11;67.96
20015;BME280;61787;42.022;23.078;2022-09-24T01:30:04;97232.91;;;9.33;66.69
20015;BME280;61787;42.022;23.078;2022-09-24T01:31:15;97233.81;;;9.29;66.82
20015;BME280;61787;42.022;23.078;2022-09-24T01:32:25;97233.03;;;9.20;67.18
20015;BME280;61787;42.022;23.078;2022-09-24T01:33:35;97236.44;;;9.03;68.07
20015;BME280;61787;42.022;23.078;2022-09-24T01:34:41;97235.50;;;8.90;68.02
20015;BME280;61787;42.022;23.078;2022-09-24T01:35:47;97241.41;;;8.70;68.82
20015;BME280;61787;42.022;23.078;2022-09-24T01:36:51;97235.63;;;8.77;68.90
20015;BME280;61787;42.022;23.078;2022-09-24T01:38:02;97241.28;;;8.84;68.25
20015;BME280;61787;42.022;23.078;2022-09-24T01:39:06;97244.00;;;8.92;68.42
20015;BME280;61787;42.022;23.078;2022-09-24T01:40:10;97243.97;;;8.84;68.80
20015;BME280;61787;42.022;23.078;2022-09-24T01:41:13;97243.75;;;8.63;69.03
20015;BME280;61787;42.022;23.078;2022-09-24T01:42:17;97258.00;;;8.50;69.51
20015;BME280;61787;42.022;23.078;2022-09-24T01:43:24;97244.28;;;8.43;70.29
20015;BME280;61787;42.022;23.078;2022-09-24T01:44:27;97253.47;;;8.50;69.80
20015;BME280;61787;42.022;23.078;2022-09-24T01:45:30;97252.22;;;8.57;69.18
20015;BME280;61787;42.022;23.078;2022-09-24T01:46:35;97253.19;;;8.61;69.68
20015;BME280;61787;42.022;23.078;2022-09-24T01:47:39;97252.09;;;8.62;69.03
20015;BME280;61787;42.022;23.078;2022-09-24T01:48:41;97254.28;;;8.68;69.42
20015;BME280;61787;42.022;23.078;2022-09-24T01:49:43;97254.47;;;8.72;69.30
20015;BME280;61787;42.022;23.078;2022-09-24T01:50:59;97256.50;;;8.66;69.00
20015;BME280;61787;42.022;23.078;2022-09-24T01:52:06;97251.16;;;8.66;69.08
20015;BME280;61787;42.022;23.078;2022-09-24T01:53:23;97260.13;;;8.70;68.99
20015;BME280;61787;42.022;23.078;2022-09-24T01:54:46;97250.88;;;8.76;69.07
20015;BME280;61787;42.022;23.078;2022-09-24T01:56:22;97253.22;;;8.78;68.85
20015;BME280;61787;42.022;23.078;2022-09-24T01:57:32;97250.41;;;8.83;69.25
20015;BME280;61787;42.022;23.078;2022-09-24T01:59:05;97252.16;;;8.87;69.19
20015;BME280;61787;42.022;23.078;2022-09-24T02:00:16;97255.31;;;8.89;68.82
20015;BME280;61787;42.022;23.078;2022-09-24T02:01:23;97250.91;;;8.93;68.11
20015;BME280;61787;42.022;23.078;2022-09-24T02:02:33;97258.50;;;9.00;68.54
20015;BME280;61787;42.022;23.078;2022-09-24T02:03:41;97252.19;;;9.05;67.87
20015;BME280;61787;42.022;23.078;2022-09-24T02:04:47;97255.50;;;9.02;68.23
20015;BME280;61787;42.022;23.078;2022-09-24T02:05:59;97255.38;;;9.07;68.01
20015;BME280;61787;42.022;23.078;2022-09-24T02:07:09;97248.78;;;9.13;67.45
20015;BME280;61787;42.022;23.078;2022-09-24T02:08:20;97249.72;;;9.17;67.98
20015;BME280;61787;42.022;23.078;2022-09-24T02:09:30;97251.44;;;9.21;67.97
20015;BME280;61787;42.022;23.078;2022-09-24T02:10:39;97248.94;;;9.25;67.57
20015;BME280;61787;42.022;23.078;2022-09-24T02:11:42;97251.78;;;9.28;67.30
20015;BME280;61787;42.022;23.078;2022-09-24T02:12:49;97258.88;;;9.33;67.60
20015;BME280;61787;42.022;23.078;2022-09-24T02:13:57;97255.06;;;9.34;66.29
20015;BME280;61787;42.022;23.078;2022-09-24T02:15:10;97249.09;;;9.37;66.69
20015;BME280;61787;42.022;23.078;2022-09-24T02:16:15;97253.53;;;9.33;66.75
20015;BME280;61787;42.022;23.078;2022-09-24T02:17:23;97260.41;;;9.34;66.75
20015;BME280;61787;42.022;23.078;2022-09-24T02:18:32;97265.16;;;9.37;66.76
20015;BME280;61787;42.022;23.078;2022-09-24T02:19:36;97257.13;;;9.37;66.24
20015;BME280;61787;42.022;23.078;2022-09-24T02:20:41;97251.78;;;9.37;66.44
20015;BME280;61787;42.022;23.078;2022-09-24T02:21:45;97262.94;;;9.39;66.51
20015;BME280;61787;42.022;23.078;2022-09-24T02:22:48;97257.75;;;9.34;67.63
20015;BME280;61787;42.022;23.078;2022-09-24T02:24:36;97256.81;;;9.30;67.53
20015;BME280;61787;42.022;23.078;2022-09-24T02:25:30;97266.84;;;9.16;68.70
20015;BME280;61787;42.022;23.078;2022-09-24T02:26:33;97260.06;;;9.10;69.12
20015;BME280;61787;42.022;23.078;2022-09-24T02:27:34;97259.47;;;9.13;68.25
20015;BME280;61787;42.022;23.078;2022-09-24T02:28:36;97255.84;;;9.17;68.20
20015;BME280;61787;42.022;23.078;2022-09-24T02:29:38;97258.53;;;9.26;67.26
20015;BME280;61787;42.022;23.078;2022-09-24T02:30:42;97261.84;;;9.31;67.50
20015;BME280;61787;42.022;23.078;2022-09-24T02:31:47;97255.72;;;9.31;67.69
20015;BME280;61787;42.022;23.078;2022-09-24T02:32:52;97264.38;;;9.28;67.46
20015;BME280;61787;42.022;23.078;2022-09-24T02:33:55;97263.88;;;9.26;67.92
20015;BME280;61787;42.022;23.078;2022-09-24T02:35:18;97268.00;;;9.32;67.34
20015;BME280;61787;42.022;23.078;2022-09-24T02:36:20;97262.78;;;9.35;68.40
20015;BME280;61787;42.022;23.078;2022-09-24T02:37:25;97269.72;;;9.36;67.49
20015;BME280;61787;42.022;23.078;2022-09-24T02:38:26;97265.16;;;9.37;67.69
20015;BME280;61787;42.022;23.078;2022-09-24T02:39:28;97266.75;;;9.38;67.42
20015;BME280;61787;42.022;23.078;2022-09-24T02:40:30;97268.31;;;9.39;67.24
20015;BME280;61787;42.022;23.078;2022-09-24T02:41:32;97266.56;;;9.34;67.58
20015;BME280;61787;42.022;23.078;2022-09-24T02:42:35;97263.59;;;9.36;67.92
20015;BME280;61787;42.022;23.078;2022-09-24T02:43:37;97267.84;;;9.37;67.61
20015;BME280;61787;42.022;23.078;2022-09-24T02:44:41;97266.41;;;9.31;68.20
20015;BME280;61787;42.022;23.078;2022-09-24T02:45:42;97269.88;;;9.23;67.68
20015;BME280;61787;42.022;23.078;2022-09-24T02:46:45;97282.44;;;9.14;68.15
20015;BME280;61787;42.022;23.078;2022-09-24T02:47:47;97265.13;;;9.11;68.57
20015;BME280;61787;42.022;23.078;2022-09-24T02:48:49;97268.75;;;9.15;68.56
20015;BME280;61787;42.022;23.078;2022-09-24T02:49:50;97270.94;;;9.13;68.64
20015;BME280;61787;42.022;23.078;2022-09-24T02:50:52;97280.88;;;9.13;68.83
20015;BME280;61787;42.022;23.078;2022-09-24T02:51:54;97284.16;;;9.10;68.43
20015;BME280;61787;42.022;23.078;2022-09-24T02:52:56;97281.47;;;9.10;68.44
20015;BME280;61787;42.022;23.078;2022-09-24T02:53:58;97276.13;;;9.10;68.39
20015;BME280;61787;42.022;23.078;2022-09-24T02:55:00;97280.88;;;9.13;68.30
20015;BME280;61787;42.022;23.078;2022-09-24T02:56:02;97274.59;;;9.17;67.59
20015;BME280;61787;42.022;23.078;2022-09-24T02:57:04;97280.09;;;9.21;68.13
20015;BME280;61787;42.022;23.078;2022-09-24T02:58:05;97282.78;;;9.21;67.24
20015;BME280;61787;42.022;23.078;2022-09-24T02:59:07;97284.81;;;9.24;67.69
20015;BME280;61787;42.022;23.078;2022-09-24T03:00:09;97292.22;;;9.27;67.25
20015;BME280;61787;42.022;23.078;2022-09-24T03:01:11;97290.00;;;9.29;67.18
20015;BME280;61787;42.022;23.078;2022-09-24T03:02:13;97290.00;;;9.29;67.38
20015;BME280;61787;42.022;23.078;2022-09-24T03:03:15;97294.75;;;9.32;66.41
20015;BME280;61787;42.022;23.078;2022-09-24T03:04:17;97294.13;;;9.35;67.09
20015;BME280;61787;42.022;23.078;2022-09-24T03:05:18;97294.91;;;9.35;66.83
20015;BME280;61787;42.022;23.078;2022-09-24T03:06:20;97297.28;;;9.37;66.47
20015;BME280;61787;42.022;23.078;2022-09-24T03:07:22;97302.63;;;9.37;66.76
20015;BME280;61787;42.022;23.078;2022-09-24T03:08:24;97305.31;;;9.28;67.72
20015;BME280;61787;42.022;23.078;2022-09-24T03:09:25;97302.44;;;9.25;67.17
20015;BME280;61787;42.022;23.078;2022-09-24T03:10:27;97293.47;;;9.21;67.11
20015;BME280;61787;42.022;23.078;2022-09-24T03:11:29;97298.81;;;9.21;66.83
20015;BME280;61787;42.022;23.078;2022-09-24T03:12:32;97307.63;;;9.13;67.24
20015;BME280;61787;42.022;23.078;2022-09-24T03:13:33;97308.88;;;9.07;68.04
20015;BME280;61787;42.022;23.078;2022-09-24T03:14:35;97306.94;;;8.98;67.97
20015;BME280;61787;42.022;23.078;2022-09-24T03:15:36;97305.81;;;8.91;67.65
20015;BME280;61787;42.022;23.078;2022-09-24T03:16:38;97299.69;;;8.90;68.57
20015;BME280;61787;42.022;23.078;2022-09-24T03:17:40;97306.63;;;8.91;67.58
20015;BME280;61787;42.022;23.078;2022-09-24T03:18:41;97307.69;;;8.90;68.06
20015;BME280;61787;42.022;23.078;2022-09-24T03:19:43;97308.34;;;8.96;67.44
20015;BME280;61787;42.022;23.078;2022-09-24T03:20:56;97303.97;;;9.00;67.46
20015;BME280;61787;42.022;23.078;2022-09-24T03:21:58;97307.28;;;9.06;67.45
20015;BME280;61787;42.022;23.078;2022-09-24T03:23:00;97309.16;;;9.05;67.21
20015;BME280;61787;42.022;23.078;2022-09-24T03:24:01;97308.38;;;9.05;67.30
20015;BME280;61787;42.022;23.078;2022-09-24T03:25:04;97316.41;;;9.05;67.58
20015;BME280;61787;42.022;23.078;2022-09-24T03:26:07;97314.22;;;9.07;67.29
20015;BME280;61787;42.022;23.078;2022-09-24T03:27:08;97310.44;;;9.08;66.78
20015;BME280;61787;42.022;23.078;2022-09-24T03:28:10;97314.22;;;9.07;66.62
20015;BME280;61787;42.022;23.078;2022-09-24T03:29:11;97316.56;;;9.08;67.20
20015;BME280;61787;42.022;23.078;2022-09-24T03:30:13;97313.59;;;9.10;66.56
20015;BME280;61787;42.022;23.078;2022-09-24T03:31:33;97311.41;;;9.12;66.51
20015;BME280;61787;42.022;23.078;2022-09-24T03:32:35;97312.50;;;9.11;66.57
20015;BME280;61787;42.022;23.078;2022-09-24T03:33:38;97314.53;;;9.14;65.91
20015;BME280;61787;42.022;23.078;2022-09-24T03:34:39;97310.31;;;9.13;66.15
20015;BME280;61787;42.022;23.078;2022-09-24T03:35:41;97315.66;;;9.13;66.59
20015;BME280;61787;42.022;23.078;2022-09-24T03:36:43;97315.81;;;9.16;66.06
20015;BME280;61787;42.022;23.078;2022-09-24T03:37:44;97323.22;;;9.19;65.61
20015;BME280;61787;42.022;23.078;2022-09-24T03:38:52;97315.97;;;9.20;65.20
20015;BME280;61787;42.022;23.078;2022-09-24T03:39:55;97322.41;;;9.19;65.95
20015;BME280;61787;42.022;23.078;2022-09-24T03:40:58;97320.84;;;9.18;66.16
20015;BME280;61787;42.022;23.078;2022-09-24T03:42:00;97322.56;;;9.14;65.86
20015;BME280;61787;42.022;23.078;2022-09-24T03:43:01;97317.22;;;9.14;66.13
20015;BME280;61787;42.022;23.078;2022-09-24T03:44:03;97327.75;;;9.10;66.39
20015;BME280;61787;42.022;23.078;2022-09-24T03:45:05;97332.78;;;9.12;66.62
20015;BME280;61787;42.022;23.078;2022-09-24T03:46:07;97324.28;;;9.10;66.40
20015;BME280;61787;42.022;23.078;2022-09-24T03:47:10;97330.41;;;9.10;66.47
20015;BME280;61787;42.022;23.078;2022-09-24T03:48:11;97330.41;;;9.10;66.17
20015;BME280;61787;42.022;23.078;2022-09-24T03:49:13;97332.31;;;9.10;65.75
20015;BME280;61787;42.022;23.078;2022-09-24T03:50:14;97330.25;;;9.07;65.65
20015;BME280;61787;42.022;23.078;2022-09-24T03:51:18;97327.88;;;9.05;66.21
20015;BME280;61787;42.022;23.078;2022-09-24T03:52:20;97329.47;;;9.06;66.13
20015;BME280;61787;42.022;23.078;2022-09-24T03:53:22;97324.91;;;9.07;66.19
20015;BME280;61787;42.022;23.078;2022-09-24T03:54:23;97327.88;;;9.05;66.02
20015;BME280;61787;42.022;23.078;2022-09-24T03:55:25;97334.03;;;9.06;65.32
20015;BME280;61787;42.022;23.078;2022-09-24T03:56:27;97331.84;;;9.08;65.91
20015;BME280;61787;42.022;23.078;2022-09-24T03:57:28;97329.16;;;9.08;65.03
20015;BME280;61787;42.022;23.078;2022-09-24T03:58:31;97332.59;;;9.08;65.87
20015;BME280;61787;42.022;23.078;2022-09-24T03:59:33;97326.00;;;9.06;65.30
20015;BME280;61787;42.022;23.078;2022-09-24T04:00:34;97331.50;;;9.01;65.56
20015;BME280;61787;42.022;23.078;2022-09-24T04:01:41;97335.09;;;8.96;65.69
20015;BME280;61787;42.022;23.078;2022-09-24T04:02:43;97334.94;;;8.92;66.26
20015;BME280;61787;42.022;23.078;2022-09-24T04:03:46;97329.69;;;8.87;66.02
20015;BME280;61787;42.022;23.078;2022-09-24T04:04:48;97327.50;;;8.81;66.23
20015;BME280;61787;42.022;23.078;2022-09-24T04:05:49;97329.66;;;8.70;67.04
20015;BME280;61787;42.022;23.078;2022-09-24T04:06:51;97332.31;;;8.70;66.46
20015;BME280;61787;42.022;23.078;2022-09-24T04:07:53;97337.38;;;8.72;67.21
20015;BME280;61787;42.022;23.078;2022-09-24T04:08:54;97326.00;;;8.66;66.97
20015;BME280;61787;42.022;23.078;2022-09-24T04:09:56;97332.09;;;8.58;66.55
20015;BME280;61787;42.022;23.078;2022-09-24T04:10:58;97336.78;;;8.52;67.62
20015;BME280;61787;42.022;23.078;2022-09-24T04:11:59;97337.22;;;8.46;68.26
20015;BME280;61787;42.022;23.078;2022-09-24T04:13:02;97335.16;;;8.43;68.95
20015;BME280;61787;42.022;23.078;2022-09-24T04:14:04;97334.06;;;8.44;69.08
20015;BME280;61787;42.022;23.078;2022-09-24T04:15:06;97335.66;;;8.45;69.11
20015;BME280;61787;42.022;23.078;2022-09-24T04:16:07;97343.78;;;8.40;68.94
20015;BME280;61787;42.022;23.078;2022-09-24T04:17:09;97342.38;;;8.42;69.49
20015;BME280;61787;42.022;23.078;2022-09-24T04:18:11;97340.84;;;8.50;69.88
20015;BME280;61787;42.022;23.078;2022-09-24T04:19:13;97345.13;;;8.51;69.19
20015;BME280;61787;42.022;23.078;2022-09-24T04:20:20;97349.34;;;8.52;69.24
20015;BME280;61787;42.022;23.078;2022-09-24T04:21:23;97346.34;;;8.45;69.07
20015;BME280;61787;42.022;23.078;2022-09-24T04:22:24;97348.47;;;8.34;69.83
20015;BME280;61787;42.022;23.078;2022-09-24T04:23:26;97351.06;;;8.26;69.63
20015;BME280;61787;42.022;23.078;2022-09-24T04:24:28;97345.84;;;8.21;70.21
20015;BME280;61787;42.022;23.078;2022-09-24T04:25:31;97348.00;;;8.19;71.03
20015;BME280;61787;42.022;23.078;2022-09-24T04:26:32;97347.41;;;8.22;70.47
20015;BME280;61787;42.022;23.078;2022-09-24T04:27:34;97347.41;;;8.22;71.17
20015;BME280;61787;42.022;23.078;2022-09-24T04:28:37;97345.84;;;8.21;71.19
20015;BME280;61787;42.022;23.078;2022-09-24T04:29:38;97341.88;;;8.18;71.10
20015;BME280;61787;42.022;23.078;2022-09-24T04:30:40;97349.28;;;8.21;71.14
20015;BME280;61787;42.022;23.078;2022-09-24T04:31:41;97352.44;;;8.23;71.10
20015;BME280;61787;42.022;23.078;2022-09-24T04:32:43;97348.63;;;8.16;71.22
20015;BME280;61787;42.022;23.078;2022-09-24T04:33:45;97349.22;;;8.12;71.60
20015;BME280;61787;42.022;23.078;2022-09-24T04:34:46;97348.63;;;8.16;71.67
20015;BME280;61787;42.022;23.078;2022-09-24T04:35:48;97355.41;;;8.22;71.46
20015;BME280;61787;42.022;23.078;2022-09-24T04:36:49;97353.72;;;8.26;71.46
20015;BME280;61787;42.022;23.078;2022-09-24T04:37:51;97367.00;;;8.31;71.74
20015;BME280;61787;42.022;23.078;2022-09-24T04:38:53;97366.66;;;8.32;71.30
20015;BME280;61787;42.022;23.078;2022-09-24T04:39:54;97352.53;;;8.32;71.46
20015;BME280;61787;42.022;23.078;2022-09-24T04:41:06;97355.78;;;8.29;71.07
20015;BME280;61787;42.022;23.078;2022-09-24T04:42:07;97355.09;;;8.23;70.98
20015;BME280;61787;42.022;23.078;2022-09-24T04:43:09;97354.94;;;8.20;71.03
20015;BME280;61787;42.022;23.078;2022-09-24T04:44:10;97362.63;;;8.21;71.45
20015;BME280;61787;42.022;23.078;2022-09-24T04:45:14;97361.06;;;8.20;70.61
20015;BME280;61787;42.022;23.078;2022-09-24T04:46:20;97364.66;;;8.16;71.09
20015;BME280;61787;42.022;23.078;2022-09-24T04:47:22;97365.25;;;8.12;71.25
20015;BME280;61787;42.022;23.078;2022-09-24T04:48:26;97363.88;;;8.15;71.04
20015;BME280;61787;42.022;23.078;2022-09-24T04:49:28;97361.50;;;8.13;71.26
20015;BME280;61787;42.022;23.078;2022-09-24T04:50:30;97365.25;;;8.12;71.47
20015;BME280;61787;42.022;23.078;2022-09-24T04:51:34;97358.94;;;8.08;71.55
20015;BME280;61787;42.022;23.078;2022-09-24T04:52:37;97356.56;;;8.07;71.91
20015;BME280;61787;42.022;23.078;2022-09-24T04:53:39;97360.13;;;8.02;72.02
20015;BME280;61787;42.022;23.078;2022-09-24T04:54:42;97352.97;;;7.89;71.96
20015;BME280;61787;42.022;23.078;2022-09-24T04:55:45;97362.13;;;7.97;72.29
20015;BME280;61787;42.022;23.078;2022-09-24T04:56:47;97358.16;;;8.08;71.98
20015;BME280;61787;42.022;23.078;2022-09-24T04:57:49;97358.19;;;8.17;72.20
20015;BME280;61787;42.022;23.078;2022-09-24T04:58:51;97369.75;;;8.26;71.84
20015;BME280;61787;42.022;23.078;2022-09-24T04:59:54;97363.22;;;8.32;70.97
20015;BME280;61787;42.022;23.078;2022-09-24T05:00:56;97366.38;;;8.34;70.92
20015;BME280;61787;42.022;23.078;2022-09-24T05:01:57;97367.50;;;8.41;70.86
20015;BME280;61787;42.022;23.078;2022-09-24T05:03:00;97367.75;;;8.53;70.41
20015;BME280;61787;42.022;23.078;2022-09-24T05:04:05;97369.38;;;8.63;70.11
20015;BME280;61787;42.022;23.078;2022-09-24T05:05:07;97372.88;;;8.72;69.96
20015;BME280;61787;42.022;23.078;2022-09-24T05:06:09;97378.44;;;8.76;69.86
20015;BME280;61787;42.022;23.078;2022-09-24T05:07:11;97371.78;;;8.73;70.25
20015;BME280;61787;42.022;23.078;2022-09-24T05:08:13;97375.69;;;8.67;69.80
20015;BME280;61787;42.022;23.078;2022-09-24T05:09:14;97371.91;;;8.68;69.75
20015;BME280;61787;42.022;23.078;2022-09-24T05:10:16;97376.69;;;8.71;70.43
20015;BME280;61787;42.022;23.078;2022-09-24T05:11:18;97366.44;;;8.73;70.04
20015;BME280;61787;42.022;23.078;2022-09-24T05:12:20;97377.81;;;8.79;69.83
20015;BME280;61787;42.022;23.078;2022-09-24T05:13:22;97367.63;;;8.89;69.59
20015;BME280;61787;42.022;23.078;2022-09-24T05:14:24;97372.72;;;8.99;68.95
20015;BME280;61787;42.022;23.078;2022-09-24T05:15:25;97374.97;;;9.15;69.35
20015;BME280;61787;42.022;23.078;2022-09-24T05:16:27;97376.28;;;9.26;68.18
20015;BME280;61787;42.022;23.078;2022-09-24T05:17:29;97378.97;;;9.34;68.02
20015;BME280;61787;42.022;23.078;2022-09-24T05:18:30;97372.53;;;9.44;68.43
20015;BME280;61787;42.022;23.078;2022-09-24T05:19:32;97371.47;;;9.54;67.98
20015;BME280;61787;42.022;23.078;2022-09-24T05:20:33;97374.16;;;9.62;68.27
20015;BME280;61787;42.022;23.078;2022-09-24T05:21:35;97375.44;;;9.73;68.06
20015;BME280;61787;42.022;23.078;2022-09-24T05:22:44;97366.16;;;9.79;67.43
20015;BME280;61787;42.022;23.078;2022-09-24T05:23:46;97371.38;;;9.84;66.59
20015;BME280;61787;42.022;23.078;2022-09-24T05:24:47;97366.47;;;9.95;67.01
20015;BME280;61787;42.022;23.078;2022-09-24T05:25:49;97368.38;;;10.12;66.89
20015;BME280;61787;42.022;23.078;2022-09-24T05:27:09;97368.56;;;10.24;66.95
20015;BME280;61787;42.022;23.078;2022-09-24T05:28:10;97364.78;;;10.25;65.72
20015;BME280;61787;42.022;23.078;2022-09-24T05:29:12;97363.06;;;10.20;65.85
20015;BME280;61787;42.022;23.078;2022-09-24T05:30:15;97370.16;;;10.25;64.57
20015;BME280;61787;42.022;23.078;2022-09-24T05:31:16;97368.53;;;10.07;64.82
20015;BME280;61787;42.022;23.078;2022-09-24T05:32:19;97368.84;;;10.14;65.98
20015;BME280;61787;42.022;23.078;2022-09-24T05:33:20;97364.63;;;10.30;64.91
20015;BME280;61787;42.022;23.078;2022-09-24T05:34:22;97365.06;;;10.49;63.73
20015;BME280;61787;42.022;23.078;2022-09-24T05:35:23;97378.91;;;10.68;63.07
20015;BME280;61787;42.022;23.078;2022-09-24T05:36:25;97370.94;;;10.89;62.62
20015;BME280;61787;42.022;23.078;2022-09-24T05:37:27;97378.34;;;11.01;62.23
20015;BME280;61787;42.022;23.078;2022-09-24T05:38:29;97374.38;;;11.07;62.05
20015;BME280;61787;42.022;23.078;2022-09-24T05:39:30;97377.84;;;11.07;61.42
20015;BME280;61787;42.022;23.078;2022-09-24T05:40:34;97375.59;;;11.18;61.35
20015;BME280;61787;42.022;23.078;2022-09-24T05:41:48;97375.13;;;11.16;60.11
20015;BME280;61787;42.022;23.078;2022-09-24T05:42:50;97374.94;;;11.21;61.51
20015;BME280;61787;42.022;23.078;2022-09-24T05:43:52;97374.28;;;11.24;60.25
20015;BME280;61787;42.022;23.078;2022-09-24T05:44:53;97375.25;;;11.28;60.66
20015;BME280;61787;42.022;23.078;2022-09-24T05:45:55;97378.31;;;11.39;60.46
20015;BME280;61787;42.022;23.078;2022-09-24T05:46:58;97377.56;;;11.38;58.62
20015;BME280;61787;42.022;23.078;2022-09-24T05:48:00;97376.34;;;11.27;59.02
20015;BME280;61787;42.022;23.078;2022-09-24T05:49:02;97380.31;;;11.21;60.12
20015;BME280;61787;42.022;23.078;2022-09-24T05:50:04;97379.03;;;11.27;60.20
20015;BME280;61787;42.022;23.078;2022-09-24T05:51:05;97378.28;;;11.47;60.36
20015;BME280;61787;42.022;23.078;2022-09-24T05:52:07;97382.00;;;11.64;59.32
20015;BME280;61787;42.022;23.078;2022-09-24T05:53:09;97383.69;;;11.77;59.91